Time;durP1;ratioP1;P1;durP2;ratioP2;P2;SDS_P1;SDS_P2;PMS_P1;PMS_P2;Temp;Humidity;BMP_temperature;BMP_pressure;BME280_temperature;BME280_humidity;BME280_pressure;Samples;Min_cycle;Max_cycle;Signal;HPM_P1;HPM_P2
2023/07/22 00:00:22;;;;;;;18.52;9.10;;;12.90;99.90;;;;;;4990443;28;21108;-68
2023/07/22 00:02:48;;;;;;;18.88;8.95;;;12.90;99.90;;;;;;4977366;28;254411;-69
2023/07/22 00:05:15;;;;;;;20.02;9.32;;;12.90;99.90;;;;;;4989851;28;20030;-69
2023/07/22 00:07:41;;;;;;;18.52;8.75;;;12.80;99.90;;;;;;4970882;28;264098;-68
2023/07/22 00:10:09;;;;;;;17.58;8.65;;;12.80;99.90;;;;;;4971313;28;20046;-69
2023/07/22 00:12:35;;;;;;;18.40;8.50;;;12.80;99.90;;;;;;4930830;28;256830;-69
2023/07/22 00:15:01;;;;;;;17.20;8.40;;;12.80;99.90;;;;;;4950028;28;20662;-69
2023/07/22 00:17:28;;;;;;;19.75;9.27;;;12.70;99.90;;;;;;4927056;28;281055;-70
2023/07/22 00:19:54;;;;;;;18.70;8.95;;;12.70;99.90;;;;;;4953780;28;20066;-69
2023/07/22 00:22:21;;;;;;;22.38;9.07;;;12.70;99.90;;;;;;4929074;28;252687;-69
2023/07/22 00:24:48;;;;;;;20.38;8.68;;;12.60;99.90;;;;;;4953652;28;20047;-68
2023/07/22 00:27:14;;;;;;;24.23;9.52;;;12.60;99.90;;;;;;4929670;28;262849;-68
2023/07/22 00:29:40;;;;;;;19.25;9.15;;;12.60;99.90;;;;;;4955878;28;20058;-68
2023/07/22 00:32:08;;;;;;;21.23;9.45;;;12.60;99.90;;;;;;4926241;28;270435;-69
2023/07/22 00:34:35;;;;;;;17.88;9.68;;;12.60;99.90;;;;;;4928006;28;20050;-69
2023/07/22 00:37:01;;;;;;;20.13;8.88;;;12.50;99.90;;;;;;4925701;28;257712;-68
2023/07/22 00:39:27;;;;;;;19.17;8.95;;;12.50;99.90;;;;;;4957416;28;20054;-69
2023/07/22 00:41:53;;;;;;;20.13;9.30;;;12.50;99.90;;;;;;4907202;28;256692;-68
2023/07/22 00:44:19;;;;;;;19.63;9.30;;;12.50;99.90;;;;;;4941225;28;20506;-68
2023/07/22 00:46:45;;;;;;;20.05;8.88;;;12.40;99.90;;;;;;4921151;28;266200;-69
2023/07/22 00:49:14;;;;;;;21.05;9.63;;;12.40;99.90;;;;;;4942233;28;20931;-68
2023/07/22 00:51:40;;;;;;;22.42;9.77;;;12.40;99.90;;;;;;4941929;28;20054;-69
2023/07/22 00:54:06;;;;;;;20.55;8.98;;;12.40;99.90;;;;;;4928904;28;20058;-69
2023/07/22 00:56:36;;;;;;;20.33;9.50;;;12.40;99.90;;;;;;4941139;28;20054;-68
2023/07/22 00:59:02;;;;;;;17.38;9.38;;;12.40;99.90;;;;;;4921201;28;294545;-69
2023/07/22 01:01:28;;;;;;;18.65;8.98;;;12.30;99.90;;;;;;4941087;28;20090;-69
2023/07/22 01:03:54;;;;;;;19.20;9.20;;;12.30;99.90;;;;;;4932107;28;278849;-68
2023/07/22 01:06:24;;;;;;;19.90;9.32;;;12.30;99.90;;;;;;4938729;28;20325;-68
2023/07/22 01:08:51;;;;;;;20.05;9.13;;;12.30;99.90;;;;;;4927948;28;86274;-69
2023/07/22 01:11:17;;;;;;;20.02;9.75;;;12.30;99.90;;;;;;4940343;28;20621;-69
2023/07/22 01:13:43;;;;;;;20.27;8.90;;;12.30;99.90;;;;;;4926682;28;44831;-68
2023/07/22 01:16:10;;;;;;;21.08;9.43;;;12.20;99.90;;;;;;4937079;28;20054;-69
2023/07/22 01:18:37;;;;;;;19.95;9.15;;;12.20;99.90;;;;;;4911796;28;120593;-68
2023/07/22 01:21:06;;;;;;;17.90;9.18;;;12.20;99.90;;;;;;4939902;28;20320;-69
2023/07/22 01:23:32;;;;;;;20.25;9.45;;;12.10;99.90;;;;;;4932476;28;20057;-68
2023/07/22 01:25:59;;;;;;;21.00;9.48;;;12.10;99.90;;;;;;4954732;28;20058;-68
2023/07/22 01:28:25;;;;;;;19.40;9.05;;;12.10;99.90;;;;;;4936184;28;264323;-67
2023/07/22 01:30:52;;;;;;;19.20;8.85;;;12.10;99.90;;;;;;4935871;28;20050;-68
2023/07/22 01:33:18;;;;;;;24.65;9.63;;;12.00;99.90;;;;;;4932855;28;249692;-68
2023/07/22 01:35:44;;;;;;;19.17;9.23;;;12.00;99.90;;;;;;4941839;28;20054;-68
2023/07/22 01:38:10;;;;;;;22.15;9.70;;;12.00;99.90;;;;;;4931465;28;49840;-68
2023/07/22 01:40:36;;;;;;;20.77;9.63;;;12.00;99.90;;;;;;4941536;28;20058;-68
2023/07/22 01:43:02;;;;;;;20.88;9.00;;;11.90;99.90;;;;;;4926068;28;256633;-68
2023/07/22 01:45:29;;;;;;;19.35;9.55;;;11.90;99.90;;;;;;4942511;28;20065;-68
2023/07/22 01:47:55;;;;;;;21.13;9.52;;;11.90;99.90;;;;;;4928443;28;277535;-68
2023/07/22 01:50:21;;;;;;;19.73;9.13;;;11.80;99.90;;;;;;4942279;28;20062;-68
2023/07/22 01:52:47;;;;;;;16.90;8.98;;;11.80;99.90;;;;;;4928190;28;135267;-68
2023/07/22 01:55:13;;;;;;;19.58;8.48;;;11.80;99.90;;;;;;4936254;28;20086;-68
2023/07/22 01:57:40;;;;;;;18.67;9.25;;;11.80;99.90;;;;;;4913774;28;282371;-67
2023/07/22 02:00:10;;;;;;;20.60;9.38;;;11.80;99.90;;;;;;4938257;28;20610;-68
2023/07/22 02:02:37;;;;;;;18.77;9.38;;;11.70;99.90;;;;;;4928018;28;260025;-68
2023/07/22 02:05:03;;;;;;;22.75;9.77;;;11.70;99.90;;;;;;4948832;28;20050;-68
2023/07/22 02:07:29;;;;;;;16.35;8.80;;;11.70;99.90;;;;;;4925932;28;262404;-68
2023/07/22 02:09:56;;;;;;;19.88;9.07;;;11.70;99.90;;;;;;4944120;28;20320;-68
2023/07/22 02:12:22;;;;;;;22.73;9.93;;;11.70;99.90;;;;;;4922781;28;226652;-67
2023/07/22 02:14:48;;;;;;;17.85;8.82;;;11.70;99.90;;;;;;4949553;28;20054;-68
2023/07/22 02:17:14;;;;;;;19.30;9.57;;;11.70;99.90;;;;;;4926386;28;279296;-68
2023/07/22 02:19:40;;;;;;;18.75;9.35;;;11.70;99.90;;;;;;4952286;28;20066;-68
2023/07/22 02:22:06;;;;;;;17.05;8.82;;;11.70;99.90;;;;;;4926494;28;257201;-68
2023/07/22 02:24:33;;;;;;;23.17;10.52;;;11.70;99.90;;;;;;4952099;28;20073;-68
2023/07/22 02:26:59;;;;;;;21.30;9.60;;;11.70;99.90;;;;;;4922521;28;267838;-68
2023/07/22 02:29:25;;;;;;;18.35;9.05;;;11.70;99.90;;;;;;4940305;28;20049;-68
2023/07/22 02:31:52;;;;;;;19.60;9.40;;;11.70;99.90;;;;;;4923732;28;256215;-68
2023/07/22 02:34:18;;;;;;;18.95;9.52;;;11.70;99.90;;;;;;4955437;28;20057;-68
2023/07/22 02:36:44;;;;;;;18.90;8.60;;;11.60;99.90;;;;;;4924857;28;264551;-68
2023/07/22 02:39:10;;;;;;;17.13;8.38;;;11.70;99.90;;;;;;4940727;28;20050;-68
2023/07/22 02:41:37;;;;;;;21.08;9.20;;;11.60;99.90;;;;;;4938805;28;20591;-68
2023/07/22 02:44:05;;;;;;;17.15;8.68;;;11.60;99.90;;;;;;4921004;28;231049;-68
2023/07/22 02:46:31;;;;;;;20.70;8.02;;;11.60;99.90;;;;;;4943062;28;20058;-68
2023/07/22 02:49:01;;;;;;;17.30;8.18;;;11.50;99.90;;;;;;4937287;28;265376;-68
2023/07/22 02:51:27;;;;;;;15.82;8.15;;;11.60;99.90;;;;;;4942229;28;20054;-68
2023/07/22 02:53:53;;;;;;;14.63;7.22;;;11.50;99.90;;;;;;4933292;28;248140;-68
2023/07/22 02:56:20;;;;;;;16.10;7.85;;;11.50;99.90;;;;;;4944686;28;20068;-68
2023/07/22 02:58:46;;;;;;;15.15;7.95;;;11.50;99.90;;;;;;4921142;28;130881;-68
2023/07/22 03:01:12;;;;;;;18.10;8.43;;;11.50;99.90;;;;;;4944751;28;20058;-68
2023/07/22 03:03:39;;;;;;;19.73;8.60;;;11.50;99.90;;;;;;4941783;28;267946;-68
2023/07/22 03:06:07;;;;;;;20.50;8.70;;;11.50;99.90;;;;;;4943528;28;20046;-67
2023/07/22 03:08:33;;;;;;;15.82;8.23;;;11.50;99.90;;;;;;4936423;28;274225;-68
2023/07/22 03:10:59;;;;;;;15.35;7.13;;;11.50;99.90;;;;;;4944915;28;20058;-68
2023/07/22 03:13:29;;;;;;;18.48;8.32;;;11.50;99.90;;;;;;4938535;28;271909;-68
2023/07/22 03:15:56;;;;;;;16.38;8.60;;;11.50;99.90;;;;;;4945002;28;20130;-68
2023/07/22 03:18:22;;;;;;;16.48;7.72;;;11.50;99.90;;;;;;4930309;28;205832;-68
2023/07/22 03:20:48;;;;;;;19.23;8.23;;;11.50;99.90;;;;;;4948328;28;20505;-69
2023/07/22 03:23:15;;;;;;;16.08;7.95;;;11.50;99.90;;;;;;4939936;28;274510;-68
2023/07/22 03:25:41;;;;;;;15.00;7.95;;;11.50;99.90;;;;;;4946187;28;20050;-68
2023/07/22 03:28:07;;;;;;;18.33;8.25;;;11.50;99.90;;;;;;4933136;28;274614;-67
2023/07/22 03:30:34;;;;;;;17.08;8.10;;;11.60;99.90;;;;;;4946466;28;20785;-68
2023/07/22 03:33:00;;;;;;;18.95;8.95;;;11.70;99.90;;;;;;4934326;28;259191;-67
2023/07/22 03:35:27;;;;;;;16.67;8.80;;;11.70;99.90;;;;;;4949201;28;20077;-69
2023/07/22 03:37:54;;;;;;;16.33;8.13;;;11.70;99.90;;;;;;4930737;28;88321;-68
2023/07/22 03:40:20;;;;;;;17.20;8.27;;;11.80;99.90;;;;;;4950623;28;20058;-67
2023/07/22 03:42:48;;;;;;;18.70;8.65;;;11.80;99.90;;;;;;4936743;28;253981;-68
2023/07/22 03:45:15;;;;;;;16.40;8.38;;;11.80;99.90;;;;;;4946947;28;20749;-67
2023/07/22 03:47:41;;;;;;;18.10;8.48;;;11.90;99.90;;;;;;4937775;28;97220;-67
2023/07/22 03:50:08;;;;;;;16.95;8.23;;;11.90;99.90;;;;;;4954089;28;20567;-67
2023/07/22 03:52:34;;;;;;;17.67;8.30;;;12.00;99.90;;;;;;4934856;28;108389;-68
2023/07/22 03:55:00;;;;;;;16.70;8.43;;;12.00;99.90;;;;;;4949860;28;20522;-68
2023/07/22 03:57:27;;;;;;;16.98;8.60;;;12.00;99.90;;;;;;4919688;28;280801;-67
2023/07/22 03:59:54;;;;;;;20.85;8.50;;;12.10;99.90;;;;;;4956606;28;20066;-68
2023/07/22 04:02:21;;;;;;;18.27;8.88;;;12.10;99.90;;;;;;4934053;28;262142;-67
2023/07/22 04:04:48;;;;;;;17.77;8.35;;;12.10;99.90;;;;;;4959415;28;20054;-68
2023/07/22 04:07:14;;;;;;;19.02;9.13;;;12.20;99.90;;;;;;4932130;28;139345;-67
2023/07/22 04:09:40;;;;;;;21.17;9.90;;;12.20;99.90;;;;;;4943436;28;20057;-68
2023/07/22 04:12:08;;;;;;;17.95;9.13;;;12.30;99.90;;;;;;4927772;28;256070;-68
2023/07/22 04:14:34;;;;;;;20.10;9.25;;;12.30;99.90;;;;;;4945087;28;20061;-68
2023/07/22 04:17:00;;;;;;;21.95;9.70;;;12.40;99.90;;;;;;4926615;28;260208;-68
2023/07/22 04:19:26;;;;;;;20.65;9.35;;;12.40;99.90;;;;;;4957527;28;20584;-68
2023/07/22 04:21:52;;;;;;;17.48;9.02;;;12.50;99.90;;;;;;4925803;28;270468;-67
2023/07/22 04:24:18;;;;;;;23.63;10.05;;;12.50;99.90;;;;;;4940674;28;21161;-68
2023/07/22 04:26:45;;;;;;;19.30;10.27;;;12.50;99.90;;;;;;4927306;28;229303;-69
2023/07/22 04:29:12;;;;;;;17.92;9.70;;;12.60;99.90;;;;;;4957890;28;20054;-68
2023/07/22 04:31:39;;;;;;;19.58;10.35;;;12.50;99.90;;;;;;4940751;28;20411;-68
2023/07/22 04:34:05;;;;;;;18.77;9.73;;;12.60;99.90;;;;;;4925642;28;205835;-68
2023/07/22 04:36:31;;;;;;;17.88;9.68;;;12.60;99.90;;;;;;4944335;28;20130;-69
2023/07/22 04:38:58;;;;;;;20.20;10.02;;;12.70;99.90;;;;;;4941076;28;269489;-68
2023/07/22 04:41:25;;;;;;;19.13;10.20;;;12.70;99.90;;;;;;4943782;28;20050;-68
2023/07/22 04:43:51;;;;;;;18.42;8.93;;;12.70;99.90;;;;;;4928078;28;178050;-68
2023/07/22 04:46:17;;;;;;;20.13;9.65;;;12.70;99.90;;;;;;4939554;28;20058;-68
2023/07/22 04:48:43;;;;;;;18.90;9.73;;;12.80;99.90;;;;;;4938142;28;264310;-68
2023/07/22 04:51:09;;;;;;;19.33;9.80;;;12.80;99.90;;;;;;4942410;28;20412;-68
2023/07/22 04:53:35;;;;;;;19.15;10.57;;;12.90;99.90;;;;;;4940344;28;271075;-68
2023/07/22 04:56:02;;;;;;;21.08;10.85;;;13.00;99.90;;;;;;4942737;28;20422;-68
2023/07/22 04:58:28;;;;;;;22.35;11.25;;;13.00;99.90;;;;;;4919982;28;272161;-68
2023/07/22 05:00:54;;;;;;;24.10;11.70;;;13.00;99.90;;;;;;4937200;28;20050;-68
2023/07/22 05:03:20;;;;;;;20.63;11.30;;;13.00;99.90;;;;;;4926452;28;151051;-68
2023/07/22 05:05:48;;;;;;;21.00;10.40;;;13.10;99.90;;;;;;4925191;28;20057;-68
2023/07/22 05:08:14;;;;;;;21.45;11.25;;;13.10;99.90;;;;;;4934151;28;268721;-69
2023/07/22 05:10:40;;;;;;;24.20;11.07;;;13.10;99.90;;;;;;4936353;28;20046;-69
2023/07/22 05:13:06;;;;;;;21.85;11.93;;;13.20;99.90;;;;;;4933585;28;35481;-69
2023/07/22 05:15:32;;;;;;;21.02;10.88;;;13.20;99.90;;;;;;4941530;28;20050;-69
2023/07/22 05:17:58;;;;;;;20.95;11.27;;;13.30;99.90;;;;;;4932753;28;261484;-69
2023/07/22 05:20:24;;;;;;;21.40;11.35;;;13.30;99.90;;;;;;4944521;28;20066;-69
2023/07/22 05:22:50;;;;;;;26.50;11.98;;;13.40;99.90;;;;;;4931097;28;274253;-69
2023/07/22 05:25:16;;;;;;;21.60;11.73;;;13.40;99.90;;;;;;4945464;28;20601;-67
2023/07/22 05:27:43;;;;;;;24.88;12.02;;;13.50;99.90;;;;;;4929154;28;272622;-69
2023/07/22 05:30:10;;;;;;;23.60;12.60;;;13.50;99.90;;;;;;4948630;28;21016;-68
2023/07/22 05:32:36;;;;;;;21.17;11.48;;;13.60;99.90;;;;;;4928695;28;276402;-68
2023/07/22 05:35:04;;;;;;;25.15;12.70;;;13.60;99.90;;;;;;4934922;28;20054;-68
2023/07/22 05:37:31;;;;;;;24.00;12.07;;;13.70;99.90;;;;;;4927404;28;179785;-67
2023/07/22 05:39:57;;;;;;;26.17;12.48;;;13.70;99.90;;;;;;4950087;28;20093;-69
2023/07/22 05:42:23;;;;;;;22.13;12.15;;;13.80;99.90;;;;;;4926930;28;204509;-69
2023/07/22 05:44:49;;;;;;;22.60;11.90;;;13.80;99.90;;;;;;4949208;28;20066;-69
2023/07/22 05:47:15;;;;;;;22.50;11.60;;;13.90;99.90;;;;;;4916036;28;70643;-69
2023/07/22 05:49:41;;;;;;;25.05;11.82;;;14.00;99.90;;;;;;4952282;28;20054;-69
2023/07/22 05:52:08;;;;;;;20.73;11.20;;;14.00;99.90;;;;;;4924284;28;273928;-68
2023/07/22 05:54:34;;;;;;;19.13;11.15;;;14.10;99.90;;;;;;4950461;28;20115;-69
2023/07/22 05:57:00;;;;;;;22.80;11.90;;;14.20;99.90;;;;;;4911999;28;266449;-68
2023/07/22 05:59:26;;;;;;;21.17;11.02;;;14.30;99.90;;;;;;4942215;28;20058;-68
2023/07/22 06:01:52;;;;;;;20.30;11.85;;;14.40;99.90;;;;;;4925772;28;277099;-68
2023/07/22 06:04:18;;;;;;;21.45;11.85;;;14.60;99.90;;;;;;4944407;28;20849;-69
2023/07/22 06:06:44;;;;;;;22.15;11.50;;;14.70;99.90;;;;;;4922884;28;264077;-69
2023/07/22 06:09:11;;;;;;;21.00;11.15;;;14.70;99.90;;;;;;4954648;28;20061;-69
2023/07/22 06:11:37;;;;;;;20.20;11.45;;;14.90;99.90;;;;;;4941285;28;20070;-68
2023/07/22 06:14:03;;;;;;;19.33;10.50;;;15.00;99.90;;;;;;4932322;28;280483;-69
2023/07/22 06:16:29;;;;;;;19.75;10.75;;;15.10;99.90;;;;;;4939900;28;20065;-68
2023/07/22 06:18:55;;;;;;;19.35;10.75;;;15.20;99.90;;;;;;4916385;28;219455;-68
2023/07/22 06:21:21;;;;;;;21.23;11.18;;;15.40;99.90;;;;;;4943464;28;20051;-68
2023/07/22 06:23:47;;;;;;;21.35;11.50;;;15.40;99.90;;;;;;4940269;28;270958;-68
2023/07/22 06:26:13;;;;;;;18.00;10.32;;;15.40;99.90;;;;;;4943520;28;20050;-68
2023/07/22 06:28:39;;;;;;;21.88;10.48;;;15.50;99.90;;;;;;4938013;28;276047;-68
2023/07/22 06:31:05;;;;;;;21.95;10.90;;;15.60;99.90;;;;;;4941182;28;21085;-69
2023/07/22 06:33:31;;;;;;;19.15;10.27;;;15.60;99.90;;;;;;4937008;28;264781;-68
2023/07/22 06:35:59;;;;;;;16.73;10.10;;;15.60;99.90;;;;;;4946819;28;20994;-69
2023/07/22 06:38:25;;;;;;;18.17;10.55;;;15.70;99.90;;;;;;4931838;28;91935;-68
2023/07/22 06:40:54;;;;;;;17.75;10.48;;;15.60;99.90;;;;;;4942157;28;20058;-67
2023/07/22 06:43:20;;;;;;;22.05;10.98;;;15.80;99.90;;;;;;4934769;28;268306;-67
2023/07/22 06:45:46;;;;;;;20.63;11.27;;;15.90;99.90;;;;;;4947424;28;20054;-68
2023/07/22 06:48:12;;;;;;;17.77;10.75;;;16.10;99.90;;;;;;4969551;28;253238;-69
2023/07/22 06:50:38;;;;;;;19.25;11.25;;;16.20;99.90;;;;;;4989007;28;20054;-69
2023/07/22 06:53:04;;;;;;;20.50;11.32;;;16.40;99.90;;;;;;4973132;28;284695;-69
2023/07/22 06:55:30;;;;;;;19.10;10.98;;;16.50;99.90;;;;;;4987570;28;20570;-68
2023/07/22 06:57:57;;;;;;;20.08;11.45;;;16.60;99.90;;;;;;4956247;28;268918;-67
2023/07/22 07:00:23;;;;;;;17.85;11.20;;;16.60;99.90;;;;;;4984439;28;20054;-69
2023/07/22 07:02:50;;;;;;;20.63;11.98;;;16.60;99.90;;;;;;4980716;28;20069;-67
2023/07/22 07:05:16;;;;;;;17.63;10.50;;;16.60;99.90;;;;;;4978235;28;271616;-68
2023/07/22 07:07:43;;;;;;;19.40;10.77;;;16.60;99.90;;;;;;4988434;28;20057;-69
2023/07/22 07:10:10;;;;;;;17.13;10.32;;;16.60;99.90;;;;;;4978678;28;20058;-69
2023/07/22 07:12:36;;;;;;;18.38;10.23;;;16.50;99.90;;;;;;4982749;28;20061;-68
2023/07/22 07:15:02;;;;;;;17.88;10.05;;;16.60;99.90;;;;;;4972736;28;91397;-69
2023/07/22 07:17:28;;;;;;;18.08;10.20;;;16.60;99.90;;;;;;4981182;28;20062;-69
2023/07/22 07:19:54;;;;;;;18.25;10.30;;;16.50;99.90;;;;;;4973796;28;116329;-69
2023/07/22 07:22:20;;;;;;;16.95;9.32;;;16.60;99.90;;;;;;4985144;28;20057;-69
2023/07/22 07:24:46;;;;;;;18.67;9.88;;;16.60;99.90;;;;;;4966603;28;85223;-71
2023/07/22 07:27:13;;;;;;;17.67;9.73;;;16.70;99.90;;;;;;4968538;28;20058;-69
2023/07/22 07:29:39;;;;;;;15.63;9.57;;;16.90;99.90;;;;;;4967931;28;264511;-69
2023/07/22 07:32:05;;;;;;;17.80;9.27;;;17.00;99.90;;;;;;4995124;28;20057;-69
2023/07/22 07:34:31;;;;;;;16.42;9.27;;;17.10;99.90;;;;;;4974867;28;78265;-68
2023/07/22 07:36:57;;;;;;;15.90;8.80;;;17.30;99.90;;;;;;4982933;28;20534;-69
2023/07/22 07:39:24;;;;;;;14.98;7.60;;;17.50;99.90;;;;;;4967036;28;37257;-69
2023/07/22 07:41:50;;;;;;;15.65;7.75;;;17.80;99.90;;;;;;4976095;28;20412;-68
2023/07/22 07:44:16;;;;;;;13.80;6.97;;;18.00;99.90;;;;;;4975441;28;276102;-69
2023/07/22 07:46:42;;;;;;;12.95;7.30;;;18.30;99.90;;;;;;4989122;28;20065;-69
2023/07/22 07:49:08;;;;;;;15.57;7.50;;;18.30;99.90;;;;;;4971628;28;268117;-69
2023/07/22 07:51:34;;;;;;;16.60;7.47;;;18.30;99.90;;;;;;5001422;28;20404;-69
2023/07/22 07:54:01;;;;;;;14.18;7.05;;;18.40;99.90;;;;;;4956495;28;261510;-69
2023/07/22 07:56:27;;;;;;;13.18;7.78;;;18.40;99.90;;;;;;4985133;28;20057;-69
2023/07/22 07:58:54;;;;;;;13.98;7.55;;;18.40;99.90;;;;;;4968108;28;282054;-70
2023/07/22 08:01:21;;;;;;;13.30;7.00;;;18.50;99.90;;;;;;4985940;28;20053;-68
2023/07/22 08:03:47;;;;;;;12.65;5.97;;;18.70;99.90;;;;;;4990317;28;20054;-69
2023/07/22 08:06:13;;;;;;;12.93;6.20;;;19.10;99.90;;;;;;4989740;28;180046;-69
2023/07/22 08:08:39;;;;;;;12.68;6.97;;;19.30;99.90;;;;;;4992071;28;20050;-69
2023/07/22 08:11:11;;;;;;;13.05;6.85;;;19.50;99.90;;;;;;4972437;28;251379;-70
2023/07/22 08:13:37;;;;;;;13.93;7.00;;;19.40;99.90;;;;;;4992745;28;20034;-69
2023/07/22 08:16:07;;;;;;;13.10;7.05;;;19.30;99.90;;;;;;4982069;28;264436;-70
2023/07/22 08:18:35;;;;;;;13.55;8.00;;;19.30;99.90;;;;;;4991355;28;20050;-69
2023/07/22 08:21:06;;;;;;;16.55;8.45;;;19.30;99.90;;;;;;4972176;28;172942;-69
2023/07/22 08:23:32;;;;;;;14.02;8.02;;;19.40;99.90;;;;;;4987389;28;20546;-69
2023/07/22 08:25:58;;;;;;;13.52;7.47;;;19.30;99.90;;;;;;4958313;28;210856;-70
2023/07/22 08:28:24;;;;;;;16.63;9.05;;;19.20;99.90;;;;;;4986278;28;20077;-70
2023/07/22 08:30:54;;;;;;;18.42;8.63;;;19.10;99.90;;;;;;4981270;28;270860;-70
2023/07/22 08:33:23;;;;;;;16.75;8.73;;;19.10;99.90;;;;;;4990289;28;20054;-70
2023/07/22 08:35:50;;;;;;;17.90;9.18;;;19.00;99.90;;;;;;4986215;28;257460;-69
2023/07/22 08:38:17;;;;;;;13.93;8.35;;;18.90;99.90;;;;;;4985971;28;20059;-70
2023/07/22 08:40:43;;;;;;;19.08;9.18;;;18.90;99.90;;;;;;4983354;28;262720;-69
2023/07/22 08:43:11;;;;;;;17.20;9.50;;;18.90;99.90;;;;;;4984480;28;20058;-69
2023/07/22 08:45:38;;;;;;;16.52;9.45;;;19.00;99.90;;;;;;4976163;28;260428;-69
2023/07/22 08:48:07;;;;;;;17.92;9.77;;;18.80;99.90;;;;;;4985955;28;20050;-70
2023/07/22 08:50:49;;;;;;;17.40;10.15;;;18.80;99.90;;;;;;4978950;28;268404;-70
2023/07/22 08:53:15;;;;;;;20.17;10.82;;;18.80;99.90;;;;;;4985585;28;20058;-70
2023/07/22 08:55:42;;;;;;;18.33;11.10;;;18.70;99.90;;;;;;4965203;28;254295;-69
2023/07/22 08:58:09;;;;;;;20.35;10.85;;;18.80;99.90;;;;;;4984045;28;20053;-70
2023/07/22 09:00:36;;;;;;;18.05;10.00;;;18.60;99.90;;;;;;4975977;28;85223;-69
2023/07/22 09:03:04;;;;;;;17.65;10.32;;;18.60;99.90;;;;;;4983891;28;20459;-69
2023/07/22 09:05:34;;;;;;;16.45;9.15;;;18.50;99.90;;;;;;4962597;28;20515;-68
2023/07/22 09:08:06;;;;;;;18.85;9.70;;;18.10;99.90;;;;;;4989534;28;20046;-68
2023/07/22 09:10:32;;;;;;;19.05;10.40;;;17.70;99.90;;;;;;4990831;28;20065;-68
2023/07/22 09:13:00;;;;;;;22.25;11.60;;;17.60;99.90;;;;;;4983068;28;20061;-69
2023/07/22 09:15:27;;;;;;;20.38;11.02;;;17.50;99.90;;;;;;4982865;28;265364;-68
2023/07/22 09:17:53;;;;;;;19.38;11.10;;;17.50;99.90;;;;;;4991467;28;20042;-68
2023/07/22 09:20:21;;;;;;;17.38;10.70;;;17.40;99.90;;;;;;4973461;28;20050;-69
2023/07/22 09:22:49;;;;;;;20.08;11.52;;;17.40;99.90;;;;;;4987852;28;20061;-69
2023/07/22 09:25:22;;;;;;;21.73;11.38;;;17.50;99.90;;;;;;4977743;28;114959;-69
2023/07/22 09:27:50;;;;;;;20.90;10.82;;;17.60;99.90;;;;;;4989605;28;20069;-68
2023/07/22 09:30:25;;;;;;;18.63;10.35;;;17.60;99.90;;;;;;4976655;28;168330;-67
2023/07/22 09:32:53;;;;;;;18.75;10.05;;;17.70;99.90;;;;;;4976707;28;20058;-68
2023/07/22 09:35:19;;;;;;;17.35;10.10;;;17.70;99.90;;;;;;4972602;28;20057;-67
2023/07/22 09:37:45;;;;;;;16.15;8.88;;;17.80;99.90;;;;;;4984745;28;20058;-68
2023/07/22 09:40:26;;;;;;;16.48;8.43;;;17.80;99.90;;;;;;4977411;28;256128;-68
2023/07/22 09:42:54;;;;;;;12.27;6.10;;;17.80;99.90;;;;;;4985528;28;20054;-69
2023/07/22 09:45:25;;;;;;;12.60;5.72;;;17.80;99.90;;;;;;4950939;28;263379;-68
2023/07/22 09:47:52;;;;;;;10.40;5.15;;;17.80;99.90;;;;;;4986872;28;20049;-69
2023/07/22 09:50:24;;;;;;;10.25;5.20;;;17.80;99.90;;;;;;4970822;28;264299;-68
2023/07/22 09:52:55;;;;;;;10.02;4.80;;;17.90;99.90;;;;;;4986652;28;20050;-69
2023/07/22 09:55:23;;;;;;;10.75;4.88;;;17.90;99.90;;;;;;4961179;28;260210;-69
2023/07/22 09:58:00;;;;;;;10.57;4.60;;;18.00;99.90;;;;;;4986485;28;20058;-69
2023/07/22 10:00:38;;;;;;;11.68;4.40;;;18.00;99.90;;;;;;4973675;28;258509;-68
2023/07/22 10:03:09;;;;;;;9.20;4.32;;;17.90;99.90;;;;;;4983114;28;20053;-69
2023/07/22 10:05:38;;;;;;;11.25;5.07;;;18.00;99.90;;;;;;4975919;28;255036;-69
2023/07/22 10:08:05;;;;;;;9.70;4.20;;;17.90;99.90;;;;;;4984309;28;20537;-68
2023/07/22 10:10:33;;;;;;;11.27;4.60;;;17.90;99.90;;;;;;4969171;28;70130;-69
2023/07/22 10:13:00;;;;;;;10.30;4.88;;;17.80;99.90;;;;;;4983455;28;20050;-69
2023/07/22 10:15:29;;;;;;;11.20;5.05;;;17.80;99.90;;;;;;4975762;28;268295;-69
2023/07/22 10:17:56;;;;;;;12.75;5.40;;;17.80;99.90;;;;;;4987346;28;20538;-68
2023/07/22 10:20:24;;;;;;;11.98;5.50;;;17.80;99.90;;;;;;4976555;28;268742;-68
2023/07/22 10:22:51;;;;;;;11.32;5.90;;;17.90;99.90;;;;;;4991622;28;20054;-69
2023/07/22 10:25:21;;;;;;;13.10;5.55;;;17.80;99.90;;;;;;4978438;28;276626;-68
2023/07/22 10:27:49;;;;;;;14.90;6.18;;;17.70;99.90;;;;;;4990279;28;20105;-69
2023/07/22 10:30:17;;;;;;;14.60;6.60;;;17.70;99.90;;;;;;4978969;28;253089;-69
2023/07/22 10:32:52;;;;;;;11.43;5.80;;;17.70;99.90;;;;;;4984907;28;20059;-69
2023/07/22 10:35:31;;;;;;;13.13;6.25;;;17.70;99.90;;;;;;4975265;28;24571;-70
2023/07/22 10:38:16;;;;;;;12.65;6.25;;;17.60;99.90;;;;;;4987887;28;20063;-68
2023/07/22 10:40:55;;;;;;;13.85;6.63;;;17.50;99.90;;;;;;4975173;28;253985;-69
2023/07/22 10:43:30;;;;;;;14.93;7.15;;;17.50;99.90;;;;;;4982960;28;20065;-68
2023/07/22 10:45:59;;;;;;;16.92;7.82;;;17.30;99.90;;;;;;4980367;28;163670;-70
2023/07/22 10:48:38;;;;;;;13.32;7.80;;;17.30;99.90;;;;;;4979201;28;20050;-67
2023/07/22 10:51:11;;;;;;;14.38;6.90;;;17.00;99.90;;;;;;4977219;28;276037;-68
2023/07/22 10:53:43;;;;;;;15.38;7.43;;;16.90;99.90;;;;;;4980848;28;20058;-69
2023/07/22 10:56:14;;;;;;;16.13;8.45;;;16.80;99.90;;;;;;4944566;28;241800;-69
2023/07/22 10:58:46;;;;;;;13.90;7.60;;;16.70;99.90;;;;;;4978657;28;20065;-68
2023/07/22 11:01:37;;;;;;;14.38;7.30;;;16.80;99.90;;;;;;4977004;28;64064;-68
2023/07/22 11:04:17;;;;;;;19.92;8.48;;;16.70;99.90;;;;;;4959609;28;258207;-70
2023/07/22 11:06:43;;;;;;;17.50;8.82;;;16.60;99.90;;;;;;4992316;28;20050;-68
2023/07/22 11:09:27;;;;;;;18.58;9.27;;;16.50;99.90;;;;;;4962731;28;265127;-67
2023/07/22 11:11:58;;;;;;;17.05;9.07;;;16.40;99.90;;;;;;4990751;28;20054;-66
2023/07/22 11:14:30;;;;;;;17.02;9.25;;;16.30;99.90;;;;;;4963817;28;269071;-66
2023/07/22 11:17:03;;;;;;;17.63;9.18;;;16.10;99.90;;;;;;4978261;28;20069;-66
2023/07/22 11:19:30;;;;;;;20.92;10.05;;;16.10;99.90;;;;;;4967164;28;271927;-66
2023/07/22 11:21:56;;;;;;;17.50;10.38;;;15.90;99.90;;;;;;4984193;28;20415;-66
2023/07/22 11:24:24;;;;;;;16.40;9.52;;;15.90;99.90;;;;;;4964458;28;269327;-67
2023/07/22 11:26:51;;;;;;;19.98;11.05;;;15.90;99.90;;;;;;4974188;28;20625;-65
2023/07/22 11:29:17;;;;;;;19.90;11.13;;;15.90;99.90;;;;;;4961339;28;273369;-66
2023/07/22 11:31:46;;;;;;;18.75;10.93;;;15.90;99.90;;;;;;4977897;28;20061;-67
2023/07/22 11:34:12;;;;;;;19.58;11.40;;;16.00;99.90;;;;;;4963430;28;260744;-66
2023/07/22 11:36:39;;;;;;;18.50;10.45;;;16.00;99.90;;;;;;4993175;28;20050;-66
2023/07/22 11:39:10;;;;;;;17.40;11.73;;;15.90;99.90;;;;;;4965636;28;272300;-66
2023/07/22 11:41:36;;;;;;;;;;;15.90;99.90;;;;;;4980293;28;20069;-66
2023/07/22 11:44:08;;;;;;;18.70;11.77;;;16.00;99.90;;;;;;4961766;28;258199;-66
2023/07/22 11:46:35;;;;;;;19.85;12.13;;;16.00;99.90;;;;;;4991308;28;20065;-66
2023/07/22 11:49:03;;;;;;;20.95;12.68;;;16.10;99.90;;;;;;4962435;28;266613;-67
2023/07/22 11:51:29;;;;;;;23.35;12.50;;;16.10;99.90;;;;;;4986909;28;20054;-67
2023/07/22 11:53:55;;;;;;;22.20;13.35;;;16.10;99.90;;;;;;4953630;28;263882;-66
2023/07/22 11:56:27;;;;;;;21.85;12.07;;;16.10;99.90;;;;;;4996989;28;20085;-67
2023/07/22 11:58:55;;;;;;;22.98;11.65;;;16.10;99.90;;;;;;4963983;28;273767;-67
2023/07/22 12:01:22;;;;;;;16.85;10.80;;;16.10;99.90;;;;;;4976785;28;20419;-67
2023/07/22 12:03:49;;;;;;;20.27;11.63;;;16.00;99.90;;;;;;4984736;28;20057;-67
2023/07/22 12:06:15;;;;;;;19.73;10.75;;;16.10;99.90;;;;;;4984929;28;110695;-68
2023/07/22 12:08:46;;;;;;;17.85;9.27;;;16.00;99.90;;;;;;4983190;28;20062;-67
2023/07/22 12:11:20;;;;;;;16.67;9.98;;;15.90;99.90;;;;;;4976422;28;254277;-67
2023/07/22 12:13:50;;;;;;;16.25;9.35;;;16.00;99.90;;;;;;4988467;28;20042;-66
2023/07/22 12:16:26;;;;;;;16.75;9.98;;;16.00;99.90;;;;;;4971524;28;20047;-67
2023/07/22 12:18:56;;;;;;;20.83;9.85;;;16.10;99.90;;;;;;4963390;28;269715;-66
2023/07/22 12:21:22;;;;;;;16.80;9.30;;;16.10;99.90;;;;;;4997663;28;20136;-66
2023/07/22 12:23:48;;;;;;;14.00;8.32;;;16.10;99.90;;;;;;4984712;28;20057;-66
2023/07/22 12:26:14;;;;;;;14.13;9.02;;;16.10;99.90;;;;;;4985413;28;98198;-67
2023/07/22 12:28:41;;;;;;;17.83;9.52;;;16.00;99.90;;;;;;4979800;28;20042;-66
2023/07/22 12:31:07;;;;;;;18.92;9.75;;;16.00;99.90;;;;;;4974285;28;275262;-67